sensor_id;sensor_type;location;lat;lon;timestamp;temperature;humidity
67358;HTU21D;54240;51.096;5.878;2023-11-18T00:01:25;7.01;-6.00
67358;HTU21D;54240;51.096;5.878;2023-11-18T00:03:51;7.02;-6.00
67358;HTU21D;54240;51.096;5.878;2023-11-18T00:06:17;7.02;-6.00
67358;HTU21D;54240;51.096;5.878;2023-11-18T00:08:43;7.01;-6.00
67358;HTU21D;54240;51.096;5.878;2023-11-18T00:11:09;6.99;-6.00
67358;HTU21D;54240;51.096;5.878;2023-11-18T00:13:37;6.98;-6.00
67358;HTU21D;54240;51.096;5.878;2023-11-18T00:16:08;6.97;-6.00
67358;HTU21D;54240;51.096;5.878;2023-11-18T00:18:41;6.98;-6.00
67358;HTU21D;54240;51.096;5.878;2023-11-18T00:21:07;6.99;-6.00
67358;HTU21D;54240;51.096;5.878;2023-11-18T00:23:34;6.99;-6.00
67358;HTU21D;54240;51.096;5.878;2023-11-18T00:26:01;6.99;-6.00
67358;HTU21D;54240;51.096;5.878;2023-11-18T00:28:28;6.99;-6.00
67358;HTU21D;54240;51.096;5.878;2023-11-18T00:30:54;6.97;-6.00
67358;HTU21D;54240;51.096;5.878;2023-11-18T00:33:20;6.94;-6.00
67358;HTU21D;54240;51.096;5.878;2023-11-18T00:35:47;6.97;-6.00
67358;HTU21D;54240;51.096;5.878;2023-11-18T00:38:13;6.89;-6.00
67358;HTU21D;54240;51.096;5.878;2023-11-18T00:40:38;6.85;-6.00
67358;HTU21D;54240;51.096;5.878;2023-11-18T00:43:04;6.83;-6.00
67358;HTU21D;54240;51.096;5.878;2023-11-18T00:45:30;6.80;-6.00
67358;HTU21D;54240;51.096;5.878;2023-11-18T00:47:57;6.76;-6.00
67358;HTU21D;54240;51.096;5.878;2023-11-18T00:50:23;6.71;-6.00
67358;HTU21D;54240;51.096;5.878;2023-11-18T00:52:49;6.65;-6.00
67358;HTU21D;54240;51.096;5.878;2023-11-18T00:55:16;6.63;-6.00
67358;HTU21D;54240;51.096;5.878;2023-11-18T00:57:44;6.59;-6.00
67358;HTU21D;54240;51.096;5.878;2023-11-18T01:00:15;6.58;-6.00
67358;HTU21D;54240;51.096;5.878;2023-11-18T01:02:48;6.57;-6.00
67358;HTU21D;54240;51.096;5.878;2023-11-18T01:05:15;6.55;-6.00
67358;HTU21D;54240;51.096;5.878;2023-11-18T01:07:42;6.54;-6.00
67358;HTU21D;54240;51.096;5.878;2023-11-18T01:10:08;6.52;-6.00
67358;HTU21D;54240;51.096;5.878;2023-11-18T01:12:36;6.52;-6.00
67358;HTU21D;54240;51.096;5.878;2023-11-18T01:15:02;6.51;-6.00
67358;HTU21D;54240;51.096;5.878;2023-11-18T01:17:29;6.51;-6.00
67358;HTU21D;54240;51.096;5.878;2023-11-18T01:19:58;6.49;-6.00
67358;HTU21D;54240;51.096;5.878;2023-11-18T01:22:25;6.48;-6.00
67358;HTU21D;54240;51.096;5.878;2023-11-18T01:24:50;6.44;-6.00
67358;HTU21D;54240;51.096;5.878;2023-11-18T01:27:17;6.41;-6.00
67358;HTU21D;54240;51.096;5.878;2023-11-18T01:29:45;6.39;-6.00
67358;HTU21D;54240;51.096;5.878;2023-11-18T01:32:12;6.41;-6.00
67358;HTU21D;54240;51.096;5.878;2023-11-18T01:34:40;6.41;-6.00
67358;HTU21D;54240;51.096;5.878;2023-11-18T01:37:09;6.42;-6.00
67358;HTU21D;54240;51.096;5.878;2023-11-18T01:39:36;6.44;-6.00
67358;HTU21D;54240;51.096;5.878;2023-11-18T01:42:03;6.48;-6.00
67358;HTU21D;54240;51.096;5.878;2023-11-18T01:44:30;6.51;-6.00
67358;HTU21D;54240;51.096;5.878;2023-11-18T01:46:58;6.55;-6.00
67358;HTU21D;54240;51.096;5.878;2023-11-18T01:49:26;6.58;-6.00
67358;HTU21D;54240;51.096;5.878;2023-11-18T01:51:56;6.63;-6.00
67358;HTU21D;54240;51.096;5.878;2023-11-18T01:54:23;6.64;-6.00
67358;HTU21D;54240;51.096;5.878;2023-11-18T01:56:51;6.65;-6.00
67358;HTU21D;54240;51.096;5.878;2023-11-18T01:59:18;6.68;-6.00
67358;HTU21D;54240;51.096;5.878;2023-11-18T02:01:50;6.70;-6.00
67358;HTU21D;54240;51.096;5.878;2023-11-18T02:04:17;6.75;-6.00
67358;HTU21D;54240;51.096;5.878;2023-11-18T02:06:47;6.76;-6.00
67358;HTU21D;54240;51.096;5.878;2023-11-18T02:09:16;6.79;-6.00
67358;HTU21D;54240;51.096;5.878;2023-11-18T02:11:55;6.84;-6.00
67358;HTU21D;54240;51.096;5.878;2023-11-18T02:14:26;6.88;-6.00
67358;HTU21D;54240;51.096;5.878;2023-11-18T02:16:56;6.91;-6.00
67358;HTU21D;54240;51.096;5.878;2023-11-18T02:19:25;6.94;-6.00
67358;HTU21D;54240;51.096;5.878;2023-11-18T02:21:52;6.94;-6.00
67358;HTU21D;54240;51.096;5.878;2023-11-18T02:24:33;6.94;-6.00
67358;HTU21D;54240;51.096;5.878;2023-11-18T02:27:04;6.94;-6.00
67358;HTU21D;54240;51.096;5.878;2023-11-18T02:29:36;6.91;-6.00
67358;HTU21D;54240;51.096;5.878;2023-11-18T02:35:03;6.88;-6.00
67358;HTU21D;54240;51.096;5.878;2023-11-18T02:37:32;6.88;-6.00
67358;HTU21D;54240;51.096;5.878;2023-11-18T02:40:04;6.88;-6.00
67358;HTU21D;54240;51.096;5.878;2023-11-18T02:42:44;6.90;-6.00
67358;HTU21D;54240;51.096;5.878;2023-11-18T02:45:13;6.93;-6.00
67358;HTU21D;54240;51.096;5.878;2023-11-18T02:47:44;6.96;-6.00
67358;HTU21D;54240;51.096;5.878;2023-11-18T02:50:11;6.95;-6.00
67358;HTU21D;54240;51.096;5.878;2023-11-18T02:52:37;6.95;-6.00
67358;HTU21D;54240;51.096;5.878;2023-11-18T02:55:07;6.99;-6.00
67358;HTU21D;54240;51.096;5.878;2023-11-18T02:57:38;7.01;-6.00
67358;HTU21D;54240;51.096;5.878;2023-11-18T03:00:05;7.04;-6.00
67358;HTU21D;54240;51.096;5.878;2023-11-18T03:02:34;7.04;-6.00
67358;HTU21D;54240;51.096;5.878;2023-11-18T03:05:00;7.04;-6.00
67358;HTU21D;54240;51.096;5.878;2023-11-18T03:07:26;7.04;-6.00
67358;HTU21D;54240;51.096;5.878;2023-11-18T03:09:54;7.03;-6.00
67358;HTU21D;54240;51.096;5.878;2023-11-18T03:12:23;7.01;-6.00
67358;HTU21D;54240;51.096;5.878;2023-11-18T03:14:53;6.99;-6.00
67358;HTU21D;54240;51.096;5.878;2023-11-18T03:17:19;6.96;-6.00
67358;HTU21D;54240;51.096;5.878;2023-11-18T03:19:46;6.95;-6.00
67358;HTU21D;54240;51.096;5.878;2023-11-18T03:22:11;6.94;-6.00
67358;HTU21D;54240;51.096;5.878;2023-11-18T03:24:40;6.95;-6.00
67358;HTU21D;54240;51.096;5.878;2023-11-18T03:27:06;6.97;-6.00
67358;HTU21D;54240;51.096;5.878;2023-11-18T03:29:34;6.99;-6.00
67358;HTU21D;54240;51.096;5.878;2023-11-18T03:32:00;6.98;-6.00
67358;HTU21D;54240;51.096;5.878;2023-11-18T03:34:26;6.98;-6.00
67358;HTU21D;54240;51.096;5.878;2023-11-18T03:36:52;6.98;-6.00
67358;HTU21D;54240;51.096;5.878;2023-11-18T03:39:18;6.99;-6.00
67358;HTU21D;54240;51.096;5.878;2023-11-18T03:41:44;7.00;-6.00
67358;HTU21D;54240;51.096;5.878;2023-11-18T03:44:11;7.04;-6.00
67358;HTU21D;54240;51.096;5.878;2023-11-18T03:46:37;7.08;-6.00
67358;HTU21D;54240;51.096;5.878;2023-11-18T03:49:04;7.11;-6.00
67358;HTU21D;54240;51.096;5.878;2023-11-18T03:51:30;7.08;-6.00
67358;HTU21D;54240;51.096;5.878;2023-11-18T03:53:56;7.04;-6.00
67358;HTU21D;54240;51.096;5.878;2023-11-18T03:56:21;6.96;-6.00
67358;HTU21D;54240;51.096;5.878;2023-11-18T03:58:47;6.93;-6.00
67358;HTU21D;54240;51.096;5.878;2023-11-18T04:01:26;6.95;-6.00
67358;HTU21D;54240;51.096;5.878;2023-11-18T04:03:55;6.98;-6.00
67358;HTU21D;54240;51.096;5.878;2023-11-18T04:06:22;7.04;-6.00
67358;HTU21D;54240;51.096;5.878;2023-11-18T04:08:48;7.04;-6.00
67358;HTU21D;54240;51.096;5.878;2023-11-18T04:11:16;7.07;-6.00
67358;HTU21D;54240;51.096;5.878;2023-11-18T04:13:42;7.11;-6.00
67358;HTU21D;54240;51.096;5.878;2023-11-18T04:16:12;7.12;-6.00
67358;HTU21D;54240;51.096;5.878;2023-11-18T04:18:43;7.16;-6.00
67358;HTU21D;54240;51.096;5.878;2023-11-18T04:21:10;7.18;-6.00
67358;HTU21D;54240;51.096;5.878;2023-11-18T04:23:41;7.23;-6.00
67358;HTU21D;54240;51.096;5.878;2023-11-18T04:26:08;7.25;-6.00
67358;HTU21D;54240;51.096;5.878;2023-11-18T04:28:35;7.25;-6.00
67358;HTU21D;54240;51.096;5.878;2023-11-18T04:31:03;7.26;-6.00
67358;HTU21D;54240;51.096;5.878;2023-11-18T04:33:29;7.27;-6.00
67358;HTU21D;54240;51.096;5.878;2023-11-18T04:35:55;7.29;-6.00
67358;HTU21D;54240;51.096;5.878;2023-11-18T04:38:24;7.33;-6.00
67358;HTU21D;54240;51.096;5.878;2023-11-18T04:40:54;7.38;-6.00
67358;HTU21D;54240;51.096;5.878;2023-11-18T04:43:20;7.43;-6.00
67358;HTU21D;54240;51.096;5.878;2023-11-18T04:45:47;7.44;-6.00
67358;HTU21D;54240;51.096;5.878;2023-11-18T04:48:13;7.47;-6.00
67358;HTU21D;54240;51.096;5.878;2023-11-18T04:50:41;7.49;-6.00
67358;HTU21D;54240;51.096;5.878;2023-11-18T04:53:06;7.54;-6.00
67358;HTU21D;54240;51.096;5.878;2023-11-18T04:55:37;7.58;-6.00
67358;HTU21D;54240;51.096;5.878;2023-11-18T04:58:03;7.60;-6.00
67358;HTU21D;54240;51.096;5.878;2023-11-18T05:00:34;7.63;-6.00
67358;HTU21D;54240;51.096;5.878;2023-11-18T05:03:00;7.64;-6.00
67358;HTU21D;54240;51.096;5.878;2023-11-18T05:05:26;7.65;-6.00
67358;HTU21D;54240;51.096;5.878;2023-11-18T05:07:52;7.61;-6.00
67358;HTU21D;54240;51.096;5.878;2023-11-18T05:10:18;7.62;-6.00
67358;HTU21D;54240;51.096;5.878;2023-11-18T05:12:44;7.62;-6.00
67358;HTU21D;54240;51.096;5.878;2023-11-18T05:15:10;7.61;-6.00
67358;HTU21D;54240;51.096;5.878;2023-11-18T05:17:36;7.61;-6.00
67358;HTU21D;54240;51.096;5.878;2023-11-18T05:20:06;7.61;-6.00
67358;HTU21D;54240;51.096;5.878;2023-11-18T05:22:36;7.62;-6.00
67358;HTU21D;54240;51.096;5.878;2023-11-18T05:25:03;7.68;-6.00
67358;HTU21D;54240;51.096;5.878;2023-11-18T05:27:31;7.69;-6.00
67358;HTU21D;54240;51.096;5.878;2023-11-18T05:29:57;7.65;-6.00
67358;HTU21D;54240;51.096;5.878;2023-11-18T05:32:28;7.64;-6.00
67358;HTU21D;54240;51.096;5.878;2023-11-18T05:34:54;7.63;-6.00
67358;HTU21D;54240;51.096;5.878;2023-11-18T05:37:24;7.64;-6.00
67358;HTU21D;54240;51.096;5.878;2023-11-18T05:39:50;7.64;-6.00
67358;HTU21D;54240;51.096;5.878;2023-11-18T05:42:28;7.69;-6.00
67358;HTU21D;54240;51.096;5.878;2023-11-18T05:44:53;7.71;-6.00
67358;HTU21D;54240;51.096;5.878;2023-11-18T05:47:26;7.71;-6.00
67358;HTU21D;54240;51.096;5.878;2023-11-18T05:49:53;7.74;-6.00
67358;HTU21D;54240;51.096;5.878;2023-11-18T05:52:19;7.74;-6.00
67358;HTU21D;54240;51.096;5.878;2023-11-18T05:54:48;7.76;-6.00
67358;HTU21D;54240;51.096;5.878;2023-11-18T05:57:18;7.78;-6.00
67358;HTU21D;54240;51.096;5.878;2023-11-18T05:59:45;7.81;-6.00
67358;HTU21D;54240;51.096;5.878;2023-11-18T06:02:17;7.85;-6.00
67358;HTU21D;54240;51.096;5.878;2023-11-18T06:04:44;7.86;-6.00
67358;HTU21D;54240;51.096;5.878;2023-11-18T06:07:10;7.89;-6.00
67358;HTU21D;54240;51.096;5.878;2023-11-18T06:09:41;7.91;-6.00
67358;HTU21D;54240;51.096;5.878;2023-11-18T06:12:11;7.91;-6.00
67358;HTU21D;54240;51.096;5.878;2023-11-18T06:14:37;7.93;-6.00
67358;HTU21D;54240;51.096;5.878;2023-11-18T06:17:03;7.96;-6.00
67358;HTU21D;54240;51.096;5.878;2023-11-18T06:19:29;7.99;-6.00
67358;HTU21D;54240;51.096;5.878;2023-11-18T06:21:55;8.00;-6.00
67358;HTU21D;54240;51.096;5.878;2023-11-18T06:24:21;8.02;-6.00
67358;HTU21D;54240;51.096;5.878;2023-11-18T06:26:47;7.98;-6.00
67358;HTU21D;54240;51.096;5.878;2023-11-18T06:29:15;7.98;-6.00
67358;HTU21D;54240;51.096;5.878;2023-11-18T06:31:41;8.00;-6.00
67358;HTU21D;54240;51.096;5.878;2023-11-18T06:34:08;8.00;-6.00
67358;HTU21D;54240;51.096;5.878;2023-11-18T06:36:34;7.96;-6.00
67358;HTU21D;54240;51.096;5.878;2023-11-18T06:39:00;8.05;-6.00
67358;HTU21D;54240;51.096;5.878;2023-11-18T06:41:26;8.07;-6.00
67358;HTU21D;54240;51.096;5.878;2023-11-18T06:43:59;8.07;-6.00
67358;HTU21D;54240;51.096;5.878;2023-11-18T06:46:30;8.08;-6.00
67358;HTU21D;54240;51.096;5.878;2023-11-18T06:49:01;8.12;-6.00
67358;HTU21D;54240;51.096;5.878;2023-11-18T06:51:34;8.13;-6.00
67358;HTU21D;54240;51.096;5.878;2023-11-18T06:54:01;8.14;-6.00
67358;HTU21D;54240;51.096;5.878;2023-11-18T06:56:45;8.16;-6.00
67358;HTU21D;54240;51.096;5.878;2023-11-18T06:59:13;8.19;-6.00
67358;HTU21D;54240;51.096;5.878;2023-11-18T07:01:40;8.18;-6.00
67358;HTU21D;54240;51.096;5.878;2023-11-18T07:04:09;8.20;-6.00
67358;HTU21D;54240;51.096;5.878;2023-11-18T07:06:36;8.20;-6.00
67358;HTU21D;54240;51.096;5.878;2023-11-18T07:09:07;8.22;-6.00
67358;HTU21D;54240;51.096;5.878;2023-11-18T07:11:43;8.23;-6.00
67358;HTU21D;54240;51.096;5.878;2023-11-18T07:14:11;8.17;-6.00
67358;HTU21D;54240;51.096;5.878;2023-11-18T07:16:39;8.15;-6.00
67358;HTU21D;54240;51.096;5.878;2023-11-18T07:19:05;8.18;-6.00
67358;HTU21D;54240;51.096;5.878;2023-11-18T07:21:31;8.19;-6.00
67358;HTU21D;54240;51.096;5.878;2023-11-18T07:23:58;8.23;-6.00
67358;HTU21D;54240;51.096;5.878;2023-11-18T07:26:24;8.23;-6.00
67358;HTU21D;54240;51.096;5.878;2023-11-18T07:28:50;8.24;-6.00
67358;HTU21D;54240;51.096;5.878;2023-11-18T07:31:18;8.27;-6.00
67358;HTU21D;54240;51.096;5.878;2023-11-18T07:33:45;8.27;-6.00
67358;HTU21D;54240;51.096;5.878;2023-11-18T07:36:17;8.33;-6.00
67358;HTU21D;54240;51.096;5.878;2023-11-18T07:38:49;8.36;-6.00
67358;HTU21D;54240;51.096;5.878;2023-11-18T07:41:15;8.38;-6.00
67358;HTU21D;54240;51.096;5.878;2023-11-18T07:43:55;8.39;-6.00
67358;HTU21D;54240;51.096;5.878;2023-11-18T07:46:25;8.44;-6.00
67358;HTU21D;54240;51.096;5.878;2023-11-18T07:48:52;8.44;-6.00
67358;HTU21D;54240;51.096;5.878;2023-11-18T07:51:19;8.49;-6.00
67358;HTU21D;54240;51.096;5.878;2023-11-18T07:53:48;8.55;-6.00
67358;HTU21D;54240;51.096;5.878;2023-11-18T07:56:15;8.59;-6.00
67358;HTU21D;54240;51.096;5.878;2023-11-18T07:58:45;8.62;-6.00
67358;HTU21D;54240;51.096;5.878;2023-11-18T08:01:13;8.65;-6.00
67358;HTU21D;54240;51.096;5.878;2023-11-18T08:03:39;8.68;-6.00
67358;HTU21D;54240;51.096;5.878;2023-11-18T08:06:07;8.72;-6.00
67358;HTU21D;54240;51.096;5.878;2023-11-18T08:08:34;8.72;-6.00
67358;HTU21D;54240;51.096;5.878;2023-11-18T08:11:00;8.74;-6.00
67358;HTU21D;54240;51.096;5.878;2023-11-18T08:13:25;8.77;-6.00
67358;HTU21D;54240;51.096;5.878;2023-11-18T08:15:52;8.76;-6.00
67358;HTU21D;54240;51.096;5.878;2023-11-18T08:18:18;8.79;-6.00
67358;HTU21D;54240;51.096;5.878;2023-11-18T08:20:47;8.79;-6.00
67358;HTU21D;54240;51.096;5.878;2023-11-18T08:23:13;8.81;-6.00
67358;HTU21D;54240;51.096;5.878;2023-11-18T08:25:39;8.83;-6.00
67358;HTU21D;54240;51.096;5.878;2023-11-18T08:28:07;8.88;-6.00
67358;HTU21D;54240;51.096;5.878;2023-11-18T08:30:34;8.92;-6.00
67358;HTU21D;54240;51.096;5.878;2023-11-18T08:33:00;8.95;-6.00
67358;HTU21D;54240;51.096;5.878;2023-11-18T08:35:26;9.01;-6.00
67358;HTU21D;54240;51.096;5.878;2023-11-18T08:37:52;9.05;-6.00
67358;HTU21D;54240;51.096;5.878;2023-11-18T08:40:18;9.16;-6.00
67358;HTU21D;54240;51.096;5.878;2023-11-18T08:42:48;9.22;-6.00
67358;HTU21D;54240;51.096;5.878;2023-11-18T08:45:20;9.26;-6.00
67358;HTU21D;54240;51.096;5.878;2023-11-18T08:47:56;9.34;-6.00
67358;HTU21D;54240;51.096;5.878;2023-11-18T08:50:23;9.42;-6.00
67358;HTU21D;54240;51.096;5.878;2023-11-18T08:52:51;9.48;-6.00
67358;HTU21D;54240;51.096;5.878;2023-11-18T08:55:26;9.52;-6.00
67358;HTU21D;54240;51.096;5.878;2023-11-18T08:58:13;9.54;-6.00
67358;HTU21D;54240;51.096;5.878;2023-11-18T09:01:03;9.65;-6.00
67358;HTU21D;54240;51.096;5.878;2023-11-18T09:03:38;9.66;-6.00
67358;HTU21D;54240;51.096;5.878;2023-11-18T09:06:10;9.64;-6.00
67358;HTU21D;54240;51.096;5.878;2023-11-18T09:08:51;9.64;-6.00
67358;HTU21D;54240;51.096;5.878;2023-11-18T09:11:24;9.63;-6.00
67358;HTU21D;54240;51.096;5.878;2023-11-18T09:13:52;9.59;-6.00
67358;HTU21D;54240;51.096;5.878;2023-11-18T09:16:20;9.56;-6.00
67358;HTU21D;54240;51.096;5.878;2023-11-18T09:18:51;9.56;-6.00
67358;HTU21D;54240;51.096;5.878;2023-11-18T09:21:17;9.59;-6.00
67358;HTU21D;54240;51.096;5.878;2023-11-18T09:23:50;9.61;-6.00
67358;HTU21D;54240;51.096;5.878;2023-11-18T09:26:17;9.64;-6.00
67358;HTU21D;54240;51.096;5.878;2023-11-18T09:28:43;9.63;-6.00
67358;HTU21D;54240;51.096;5.878;2023-11-18T09:31:12;9.66;-6.00
67358;HTU21D;54240;51.096;5.878;2023-11-18T09:33:39;9.66;-6.00
67358;HTU21D;54240;51.096;5.878;2023-11-18T09:36:11;9.63;-6.00
67358;HTU21D;54240;51.096;5.878;2023-11-18T09:38:39;9.61;-6.00
67358;HTU21D;54240;51.096;5.878;2023-11-18T09:41:10;9.56;-6.00
67358;HTU21D;54240;51.096;5.878;2023-11-18T09:43:38;9.53;-6.00
67358;HTU21D;54240;51.096;5.878;2023-11-18T09:46:15;9.57;-6.00
67358;HTU21D;54240;51.096;5.878;2023-11-18T09:48:49;9.57;-6.00
67358;HTU21D;54240;51.096;5.878;2023-11-18T09:51:23;9.61;-6.00
67358;HTU21D;54240;51.096;5.878;2023-11-18T09:53:51;9.62;-6.00
67358;HTU21D;54240;51.096;5.878;2023-11-18T09:56:41;9.60;-6.00
67358;HTU21D;54240;51.096;5.878;2023-11-18T09:59:18;9.50;-6.00
67358;HTU21D;54240;51.096;5.878;2023-11-18T10:01:54;9.47;-6.00
67358;HTU21D;54240;51.096;5.878;2023-11-18T10:04:25;9.34;-6.00
67358;HTU21D;54240;51.096;5.878;2023-11-18T10:06:54;9.31;-6.00
67358;HTU21D;54240;51.096;5.878;2023-11-18T10:09:26;9.34;-6.00
67358;HTU21D;54240;51.096;5.878;2023-11-18T10:12:08;9.35;-6.00
67358;HTU21D;54240;51.096;5.878;2023-11-18T10:14:41;9.29;-6.00
67358;HTU21D;54240;51.096;5.878;2023-11-18T10:17:09;9.30;-6.00
67358;HTU21D;54240;51.096;5.878;2023-11-18T10:19:54;9.30;-6.00
67358;HTU21D;54240;51.096;5.878;2023-11-18T10:22:31;9.37;-6.00
67358;HTU21D;54240;51.096;5.878;2023-11-18T10:24:58;9.34;-6.00
67358;HTU21D;54240;51.096;5.878;2023-11-18T10:27:27;9.39;-6.00
67358;HTU21D;54240;51.096;5.878;2023-11-18T10:29:58;9.46;-6.00
67358;HTU21D;54240;51.096;5.878;2023-11-18T10:32:24;9.44;-6.00
67358;HTU21D;54240;51.096;5.878;2023-11-18T10:34:56;9.54;-6.00
67358;HTU21D;54240;51.096;5.878;2023-11-18T10:37:23;9.59;-6.00
67358;HTU21D;54240;51.096;5.878;2023-11-18T10:39:50;9.61;-6.00
67358;HTU21D;54240;51.096;5.878;2023-11-18T10:42:17;9.57;-6.00
67358;HTU21D;54240;51.096;5.878;2023-11-18T10:44:57;9.56;-6.00
67358;HTU21D;54240;51.096;5.878;2023-11-18T10:47:27;9.62;-6.00
67358;HTU21D;54240;51.096;5.878;2023-11-18T10:49:56;9.67;-6.00
67358;HTU21D;54240;51.096;5.878;2023-11-18T10:52:22;9.71;-6.00
67358;HTU21D;54240;51.096;5.878;2023-11-18T10:54:53;9.55;-6.00
67358;HTU21D;54240;51.096;5.878;2023-11-18T10:57:22;9.69;-6.00
67358;HTU21D;54240;51.096;5.878;2023-11-18T11:00:05;9.74;-6.00
67358;HTU21D;54240;51.096;5.878;2023-11-18T11:02:41;9.86;-6.00
67358;HTU21D;54240;51.096;5.878;2023-11-18T11:05:08;9.94;-6.00
67358;HTU21D;54240;51.096;5.878;2023-11-18T11:07:35;9.85;-6.00
67358;HTU21D;54240;51.096;5.878;2023-11-18T11:10:03;9.89;-6.00
67358;HTU21D;54240;51.096;5.878;2023-11-18T11:12:38;9.83;-6.00
67358;HTU21D;54240;51.096;5.878;2023-11-18T11:15:18;9.96;-6.00
67358;HTU21D;54240;51.096;5.878;2023-11-18T11:17:52;9.91;-6.00
67358;HTU21D;54240;51.096;5.878;2023-11-18T11:20:22;9.96;-6.00
67358;HTU21D;54240;51.096;5.878;2023-11-18T11:28:22;10.05;-6.00
67358;HTU21D;54240;51.096;5.878;2023-11-18T11:30:55;10.12;-6.00
67358;HTU21D;54240;51.096;5.878;2023-11-18T11:33:39;10.07;-6.00
67358;HTU21D;54240;51.096;5.878;2023-11-18T11:36:19;9.97;-6.00
67358;HTU21D;54240;51.096;5.878;2023-11-18T11:38:52;10.20;-6.00
67358;HTU21D;54240;51.096;5.878;2023-11-18T11:41:20;10.13;-6.00
67358;HTU21D;54240;51.096;5.878;2023-11-18T11:43:52;10.16;-6.00
67358;HTU21D;54240;51.096;5.878;2023-11-18T11:46:25;10.20;-6.00
67358;HTU21D;54240;51.096;5.878;2023-11-18T11:49:04;10.25;-6.00
67358;HTU21D;54240;51.096;5.878;2023-11-18T11:52:13;10.20;-6.00
67358;HTU21D;54240;51.096;5.878;2023-11-18T11:55:09;9.95;-6.00
67358;HTU21D;54240;51.096;5.878;2023-11-18T11:57:39;9.96;-6.00
67358;HTU21D;54240;51.096;5.878;2023-11-18T12:00:09;9.91;-6.00
67358;HTU21D;54240;51.096;5.878;2023-11-18T12:02:51;9.97;-6.00
67358;HTU21D;54240;51.096;5.878;2023-11-18T12:05:20;9.72;-6.00
67358;HTU21D;54240;51.096;5.878;2023-11-18T12:07:52;9.66;-6.00
67358;HTU21D;54240;51.096;5.878;2023-11-18T12:10:26;9.62;-6.00
67358;HTU21D;54240;51.096;5.878;2023-11-18T12:13:07;9.66;-6.00
67358;HTU21D;54240;51.096;5.878;2023-11-18T12:15:54;9.49;-6.00
67358;HTU21D;54240;51.096;5.878;2023-11-18T12:18:23;9.40;-6.00
67358;HTU21D;54240;51.096;5.878;2023-11-18T12:20:52;9.54;-6.00
67358;HTU21D;54240;51.096;5.878;2023-11-18T12:23:23;9.48;-6.00
67358;HTU21D;54240;51.096;5.878;2023-11-18T12:25:56;9.65;-6.00
67358;HTU21D;54240;51.096;5.878;2023-11-18T12:28:31;9.53;-6.00
67358;HTU21D;54240;51.096;5.878;2023-11-18T12:31:01;9.54;-6.00
67358;HTU21D;54240;51.096;5.878;2023-11-18T12:42:00;9.63;-6.00
67358;HTU21D;54240;51.096;5.878;2023-11-18T12:44:38;9.66;-6.00
67358;HTU21D;54240;51.096;5.878;2023-11-18T12:47:08;9.65;-6.00
67358;HTU21D;54240;51.096;5.878;2023-11-18T12:49:41;9.69;-6.00
67358;HTU21D;54240;51.096;5.878;2023-11-18T12:52:08;9.65;-6.00
67358;HTU21D;54240;51.096;5.878;2023-11-18T12:54:36;9.63;-6.00
67358;HTU21D;54240;51.096;5.878;2023-11-18T12:57:12;9.55;-6.00
67358;HTU21D;54240;51.096;5.878;2023-11-18T12:59:41;9.44;-6.00
67358;HTU21D;54240;51.096;5.878;2023-11-18T13:02:08;9.42;-6.00
67358;HTU21D;54240;51.096;5.878;2023-11-18T13:04:40;9.57;-6.00
67358;HTU21D;54240;51.096;5.878;2023-11-18T13:07:06;9.44;-6.00
67358;HTU21D;54240;51.096;5.878;2023-11-18T13:09:34;9.45;-6.00
67358;HTU21D;54240;51.096;5.878;2023-11-18T13:12:03;9.54;-6.00
67358;HTU21D;54240;51.096;5.878;2023-11-18T13:14:35;9.55;-6.00
67358;HTU21D;54240;51.096;5.878;2023-11-18T13:17:03;9.60;-6.00
67358;HTU21D;54240;51.096;5.878;2023-11-18T13:19:34;9.50;-6.00
67358;HTU21D;54240;51.096;5.878;2023-11-18T13:22:02;9.46;-6.00
67358;HTU21D;54240;51.096;5.878;2023-11-18T13:24:37;9.44;-6.00
67358;HTU21D;54240;51.096;5.878;2023-11-18T13:27:08;9.51;-6.00
67358;HTU21D;54240;51.096;5.878;2023-11-18T13:29:38;9.55;-6.00
67358;HTU21D;54240;51.096;5.878;2023-11-18T13:32:05;9.44;-6.00
67358;HTU21D;54240;51.096;5.878;2023-11-18T13:34:34;9.51;-6.00
67358;HTU21D;54240;51.096;5.878;2023-11-18T13:37:05;9.65;-6.00
67358;HTU21D;54240;51.096;5.878;2023-11-18T13:39:33;9.44;-6.00
67358;HTU21D;54240;51.096;5.878;2023-11-18T13:42:21;9.55;-6.00
67358;HTU21D;54240;51.096;5.878;2023-11-18T13:44:48;9.60;-6.00
67358;HTU21D;54240;51.096;5.878;2023-11-18T13:47:22;9.66;-6.00
67358;HTU21D;54240;51.096;5.878;2023-11-18T13:49:54;9.69;-6.00
67358;HTU21D;54240;51.096;5.878;2023-11-18T13:52:20;9.66;-6.00
67358;HTU21D;54240;51.096;5.878;2023-11-18T13:54:47;9.51;-6.00
67358;HTU21D;54240;51.096;5.878;2023-11-18T13:57:13;9.53;-6.00
67358;HTU21D;54240;51.096;5.878;2023-11-18T13:59:40;9.60;-6.00
67358;HTU21D;54240;51.096;5.878;2023-11-18T14:02:09;9.59;-6.00
67358;HTU21D;54240;51.096;5.878;2023-11-18T14:04:35;9.63;-6.00
67358;HTU21D;54240;51.096;5.878;2023-11-18T14:07:03;9.55;-6.00
67358;HTU21D;54240;51.096;5.878;2023-11-18T14:09:35;9.57;-6.00
67358;HTU21D;54240;51.096;5.878;2023-11-18T14:12:08;9.63;-6.00
67358;HTU21D;54240;51.096;5.878;2023-11-18T14:14:34;9.45;-6.00
67358;HTU21D;54240;51.096;5.878;2023-11-18T14:17:00;9.57;-6.00
67358;HTU21D;54240;51.096;5.878;2023-11-18T14:19:27;9.51;-6.00
67358;HTU21D;54240;51.096;5.878;2023-11-18T14:21:56;9.48;-6.00
67358;HTU21D;54240;51.096;5.878;2023-11-18T14:24:23;9.59;-6.00
67358;HTU21D;54240;51.096;5.878;2023-11-18T14:26:56;9.66;-6.00
67358;HTU21D;54240;51.096;5.878;2023-11-18T14:29:22;9.79;-6.00
67358;HTU21D;54240;51.096;5.878;2023-11-18T14:31:48;9.71;-6.00
67358;HTU21D;54240;51.096;5.878;2023-11-18T14:34:14;9.71;-6.00
67358;HTU21D;54240;51.096;5.878;2023-11-18T14:36:41;9.74;-6.00
67358;HTU21D;54240;51.096;5.878;2023-11-18T14:39:11;9.68;-6.00
67358;HTU21D;54240;51.096;5.878;2023-11-18T14:41:39;9.62;-6.00
67358;HTU21D;54240;51.096;5.878;2023-11-18T14:44:06;9.71;-6.00
67358;HTU21D;54240;51.096;5.878;2023-11-18T14:46:35;9.77;-6.00
67358;HTU21D;54240;51.096;5.878;2023-11-18T14:49:07;9.56;-6.00
67358;HTU21D;54240;51.096;5.878;2023-11-18T14:51:33;9.62;-6.00
67358;HTU21D;54240;51.096;5.878;2023-11-18T14:53:59;9.77;-6.00
67358;HTU21D;54240;51.096;5.878;2023-11-18T14:56:25;9.79;-6.00
67358;HTU21D;54240;51.096;5.878;2023-11-18T14:58:51;9.68;-6.00
67358;HTU21D;54240;51.096;5.878;2023-11-18T15:01:17;9.84;-6.00
67358;HTU21D;54240;51.096;5.878;2023-11-18T15:03:44;9.90;-6.00
67358;HTU21D;54240;51.096;5.878;2023-11-18T15:06:11;9.91;-6.00
67358;HTU21D;54240;51.096;5.878;2023-11-18T15:08:38;9.88;-6.00
67358;HTU21D;54240;51.096;5.878;2023-11-18T15:11:06;9.80;-6.00
67358;HTU21D;54240;51.096;5.878;2023-11-18T15:13:34;9.90;-6.00
67358;HTU21D;54240;51.096;5.878;2023-11-18T15:16:00;9.95;-6.00
67358;HTU21D;54240;51.096;5.878;2023-11-18T15:18:27;9.92;-6.00
67358;HTU21D;54240;51.096;5.878;2023-11-18T15:20:53;9.95;-6.00
67358;HTU21D;54240;51.096;5.878;2023-11-18T15:23:19;10.03;-6.00
67358;HTU21D;54240;51.096;5.878;2023-11-18T15:25:48;9.88;-6.00
67358;HTU21D;54240;51.096;5.878;2023-11-18T15:28:18;10.01;-6.00
67358;HTU21D;54240;51.096;5.878;2023-11-18T15:30:45;10.07;-6.00
67358;HTU21D;54240;51.096;5.878;2023-11-18T15:33:11;10.10;-6.00
67358;HTU21D;54240;51.096;5.878;2023-11-18T15:35:39;10.03;-6.00
67358;HTU21D;54240;51.096;5.878;2023-11-18T15:38:08;10.10;-6.00
67358;HTU21D;54240;51.096;5.878;2023-11-18T15:40:35;10.19;-6.00
67358;HTU21D;54240;51.096;5.878;2023-11-18T15:43:03;10.23;-6.00
67358;HTU21D;54240;51.096;5.878;2023-11-18T15:45:32;10.29;-6.00
67358;HTU21D;54240;51.096;5.878;2023-11-18T15:48:01;10.28;-6.00
67358;HTU21D;54240;51.096;5.878;2023-11-18T15:50:31;10.20;-6.00
67358;HTU21D;54240;51.096;5.878;2023-11-18T15:52:57;10.23;-6.00
67358;HTU21D;54240;51.096;5.878;2023-11-18T15:55:23;10.30;-6.00
67358;HTU21D;54240;51.096;5.878;2023-11-18T15:57:51;10.16;-6.00
67358;HTU21D;54240;51.096;5.878;2023-11-18T16:00:21;10.16;-6.00